sensor_id;sensor_type;location;lat;lon;timestamp;pressure;altitude;pressure_sealevel;temperature;humidity
69855;BME280;57146;48.140;16.304;2022-10-16T00:01:11;99618.50;;;11.64;100.00
69855;BME280;57146;48.140;16.304;2022-10-16T00:03:39;99619.97;;;11.57;100.00
69855;BME280;57146;48.140;16.304;2022-10-16T00:06:07;99624.56;;;11.51;100.00
69855;BME280;57146;48.140;16.304;2022-10-16T00:08:34;99626.84;;;11.44;100.00
69855;BME280;57146;48.140;16.304;2022-10-16T00:11:07;99626.97;;;11.39;100.00
69855;BME280;57146;48.140;16.304;2022-10-16T00:13:36;99623.81;;;11.37;100.00
69855;BME280;57146;48.140;16.304;2022-10-16T00:16:03;99617.09;;;11.31;100.00
69855;BME280;57146;48.140;16.304;2022-10-16T00:18:30;99627.03;;;11.34;100.00
69855;BME280;57146;48.140;16.304;2022-10-16T00:21:24;99626.19;;;11.24;100.00
69855;BME280;57146;48.140;16.304;2022-10-16T00:24:00;99622.94;;;11.27;100.00
69855;BME280;57146;48.140;16.304;2022-10-16T00:26:29;99628.91;;;11.33;100.00
69855;BME280;57146;48.140;16.304;2022-10-16T00:28:56;99624.63;;;11.23;100.00
69855;BME280;57146;48.140;16.304;2022-10-16T00:31:23;99625.19;;;11.20;100.00
69855;BME280;57146;48.140;16.304;2022-10-16T00:33:51;99619.16;;;11.20;100.00
69855;BME280;57146;48.140;16.304;2022-10-16T00:36:21;99634.31;;;11.14;100.00
69855;BME280;57146;48.140;16.304;2022-10-16T00:38:51;99631.16;;;11.12;100.00
69855;BME280;57146;48.140;16.304;2022-10-16T00:41:18;99632.25;;;11.11;100.00
69855;BME280;57146;48.140;16.304;2022-10-16T00:43:46;99634.59;;;11.13;100.00
69855;BME280;57146;48.140;16.304;2022-10-16T00:46:26;99637.31;;;11.08;100.00
69855;BME280;57146;48.140;16.304;2022-10-16T00:49:10;99634.69;;;11.08;100.00
69855;BME280;57146;48.140;16.304;2022-10-16T00:51:40;99640.22;;;11.20;100.00
69855;BME280;57146;48.140;16.304;2022-10-16T00:54:14;99646.09;;;11.17;100.00
69855;BME280;57146;48.140;16.304;2022-10-16T00:56:43;99645.44;;;11.11;100.00
69855;BME280;57146;48.140;16.304;2022-10-16T00:59:16;99651.28;;;11.08;100.00
69855;BME280;57146;48.140;16.304;2022-10-16T01:01:44;99647.66;;;11.04;100.00
69855;BME280;57146;48.140;16.304;2022-10-16T01:04:11;99640.84;;;11.03;100.00
69855;BME280;57146;48.140;16.304;2022-10-16T01:12:14;99641.22;;;10.96;100.00
69855;BME280;57146;48.140;16.304;2022-10-16T01:17:57;99640.34;;;10.87;100.00
69855;BME280;57146;48.140;16.304;2022-10-16T01:20:33;99647.16;;;10.88;100.00
69855;BME280;57146;48.140;16.304;2022-10-16T01:26:11;99639.69;;;10.82;100.00
69855;BME280;57146;48.140;16.304;2022-10-16T01:31:32;99652.25;;;10.71;100.00
69855;BME280;57146;48.140;16.304;2022-10-16T01:34:12;99652.25;;;10.71;100.00
69855;BME280;57146;48.140;16.304;2022-10-16T01:36:47;99644.63;;;10.69;100.00
69855;BME280;57146;48.140;16.304;2022-10-16T01:39:16;99647.75;;;10.71;100.00
69855;BME280;57146;48.140;16.304;2022-10-16T01:41:49;99640.44;;;10.68;100.00
69855;BME280;57146;48.140;16.304;2022-10-16T01:44:21;99631.66;;;10.73;100.00
69855;BME280;57146;48.140;16.304;2022-10-16T01:46:51;99637.81;;;10.82;100.00
69855;BME280;57146;48.140;16.304;2022-10-16T01:49:21;99646.28;;;10.65;100.00
69855;BME280;57146;48.140;16.304;2022-10-16T01:51:52;99642.97;;;10.73;100.00
69855;BME280;57146;48.140;16.304;2022-10-16T01:54:23;99637.31;;;10.80;100.00
69855;BME280;57146;48.140;16.304;2022-10-16T01:56:54;99638.97;;;10.76;100.00
69855;BME280;57146;48.140;16.304;2022-10-16T01:59:25;99638.69;;;10.64;100.00
69855;BME280;57146;48.140;16.304;2022-10-16T02:01:56;99656.59;;;10.62;100.00
69855;BME280;57146;48.140;16.304;2022-10-16T02:04:45;99652.13;;;10.62;100.00
69855;BME280;57146;48.140;16.304;2022-10-16T02:07:13;99651.91;;;10.59;100.00
69855;BME280;57146;48.140;16.304;2022-10-16T02:09:40;99650.34;;;10.58;100.00
69855;BME280;57146;48.140;16.304;2022-10-16T02:12:31;99656.00;;;10.51;100.00
69855;BME280;57146;48.140;16.304;2022-10-16T02:14:59;99646.53;;;10.50;100.00
69855;BME280;57146;48.140;16.304;2022-10-16T02:17:27;99647.03;;;10.52;100.00
69855;BME280;57146;48.140;16.304;2022-10-16T02:19:55;99654.13;;;10.51;100.00
69855;BME280;57146;48.140;16.304;2022-10-16T02:22:42;99664.59;;;10.57;100.00
69855;BME280;57146;48.140;16.304;2022-10-16T02:25:22;99656.00;;;10.51;100.00
69855;BME280;57146;48.140;16.304;2022-10-16T02:30:45;99666.03;;;10.49;100.00
69855;BME280;57146;48.140;16.304;2022-10-16T02:33:14;99670.59;;;10.43;100.00
69855;BME280;57146;48.140;16.304;2022-10-16T02:35:44;99662.00;;;10.38;100.00
69855;BME280;57146;48.140;16.304;2022-10-16T02:38:14;99662.97;;;10.42;100.00
69855;BME280;57146;48.140;16.304;2022-10-16T02:40:42;99655.59;;;10.44;100.00
69855;BME280;57146;48.140;16.304;2022-10-16T02:43:10;99667.75;;;10.40;100.00
69855;BME280;57146;48.140;16.304;2022-10-16T02:45:37;99662.78;;;10.38;100.00
69855;BME280;57146;48.140;16.304;2022-10-16T02:48:04;99667.00;;;10.39;100.00
69855;BME280;57146;48.140;16.304;2022-10-16T02:50:32;99664.06;;;10.41;100.00
69855;BME280;57146;48.140;16.304;2022-10-16T02:52:58;99672.94;;;10.45;100.00
69855;BME280;57146;48.140;16.304;2022-10-16T02:55:26;99680.75;;;10.50;100.00
69855;BME280;57146;48.140;16.304;2022-10-16T02:57:53;99667.75;;;10.40;100.00
69855;BME280;57146;48.140;16.304;2022-10-16T03:00:20;99663.34;;;10.35;100.00
69855;BME280;57146;48.140;16.304;2022-10-16T03:02:47;99663.94;;;10.32;100.00
69855;BME280;57146;48.140;16.304;2022-10-16T03:05:15;99668.34;;;10.37;100.00
69855;BME280;57146;48.140;16.304;2022-10-16T03:07:42;99671.53;;;10.34;100.00
69855;BME280;57146;48.140;16.304;2022-10-16T03:10:09;99662.56;;;10.35;100.00
69855;BME280;57146;48.140;16.304;2022-10-16T03:12:36;99665.88;;;10.26;100.00
69855;BME280;57146;48.140;16.304;2022-10-16T03:15:03;99661.09;;;10.28;100.00
69855;BME280;57146;48.140;16.304;2022-10-16T03:17:31;99661.69;;;10.25;100.00
69855;BME280;57146;48.140;16.304;2022-10-16T03:19:59;99666.41;;;10.23;100.00
69855;BME280;57146;48.140;16.304;2022-10-16T03:22:27;99663.31;;;10.21;100.00
69855;BME280;57146;48.140;16.304;2022-10-16T03:24:53;99673.00;;;10.21;100.00
69855;BME280;57146;48.140;16.304;2022-10-16T03:27:20;99679.53;;;10.28;100.00
69855;BME280;57146;48.140;16.304;2022-10-16T03:29:47;99687.44;;;10.23;100.00
69855;BME280;57146;48.140;16.304;2022-10-16T03:32:14;99701.06;;;10.30;100.00
69855;BME280;57146;48.140;16.304;2022-10-16T03:34:41;99694.88;;;10.21;100.00
69855;BME280;57146;48.140;16.304;2022-10-16T03:37:08;99700.28;;;10.30;100.00
69855;BME280;57146;48.140;16.304;2022-10-16T03:39:35;99695.34;;;10.23;100.00
69855;BME280;57146;48.140;16.304;2022-10-16T03:42:02;99700.59;;;10.23;100.00
69855;BME280;57146;48.140;16.304;2022-10-16T03:44:29;99697.13;;;10.28;100.00
69855;BME280;57146;48.140;16.304;2022-10-16T03:46:55;99698.28;;;10.22;100.00
69855;BME280;57146;48.140;16.304;2022-10-16T03:49:22;99711.09;;;10.28;100.00
69855;BME280;57146;48.140;16.304;2022-10-16T03:51:49;99713.34;;;10.35;100.00
69855;BME280;57146;48.140;16.304;2022-10-16T03:54:16;99714.31;;;10.25;100.00
69855;BME280;57146;48.140;16.304;2022-10-16T03:56:43;99723.97;;;10.30;100.00
69855;BME280;57146;48.140;16.304;2022-10-16T03:59:10;99726.09;;;10.28;100.00
69855;BME280;57146;48.140;16.304;2022-10-16T04:01:36;99729.00;;;10.26;100.00
69855;BME280;57146;48.140;16.304;2022-10-16T04:04:03;99727.28;;;10.17;100.00
69855;BME280;57146;48.140;16.304;2022-10-16T04:06:30;99731.19;;;10.19;100.00
69855;BME280;57146;48.140;16.304;2022-10-16T04:08:57;99723.31;;;10.19;100.00
69855;BME280;57146;48.140;16.304;2022-10-16T04:11:24;99721.34;;;10.30;100.00
69855;BME280;57146;48.140;16.304;2022-10-16T04:13:50;99720.25;;;10.31;100.00
69855;BME280;57146;48.140;16.304;2022-10-16T04:16:17;99724.06;;;10.20;100.00
69855;BME280;57146;48.140;16.304;2022-10-16T04:18:44;99723.75;;;10.26;100.00
69855;BME280;57146;48.140;16.304;2022-10-16T04:21:11;99721.13;;;10.26;100.00
69855;BME280;57146;48.140;16.304;2022-10-16T04:23:38;99720.97;;;10.18;100.00
69855;BME280;57146;48.140;16.304;2022-10-16T04:26:05;99722.19;;;10.25;100.00
69855;BME280;57146;48.140;16.304;2022-10-16T04:28:32;99723.22;;;10.24;100.00
69855;BME280;57146;48.140;16.304;2022-10-16T04:30:59;99720.59;;;10.24;100.00
69855;BME280;57146;48.140;16.304;2022-10-16T04:33:26;99720.16;;;10.17;100.00
69855;BME280;57146;48.140;16.304;2022-10-16T04:36:00;99724.28;;;10.23;100.00
69855;BME280;57146;48.140;16.304;2022-10-16T04:38:28;99722.19;;;10.25;100.00
69855;BME280;57146;48.140;16.304;2022-10-16T04:40:55;99719.03;;;10.23;100.00
69855;BME280;57146;48.140;16.304;2022-10-16T04:43:23;99723.59;;;10.18;100.00
69855;BME280;57146;48.140;16.304;2022-10-16T04:45:50;99719.16;;;10.13;100.00
69855;BME280;57146;48.140;16.304;2022-10-16T04:48:18;99720.03;;;10.08;100.00
69855;BME280;57146;48.140;16.304;2022-10-16T04:50:45;99724.16;;;10.15;100.00
69855;BME280;57146;48.140;16.304;2022-10-16T04:53:17;99723.88;;;10.16;100.00
69855;BME280;57146;48.140;16.304;2022-10-16T04:55:44;99733.53;;;10.21;100.00
69855;BME280;57146;48.140;16.304;2022-10-16T04:58:11;99734.94;;;10.13;100.00
69855;BME280;57146;48.140;16.304;2022-10-16T05:00:38;99745.00;;;10.11;100.00
69855;BME280;57146;48.140;16.304;2022-10-16T05:03:05;99741.38;;;10.07;100.00
69855;BME280;57146;48.140;16.304;2022-10-16T05:05:32;99741.94;;;10.04;100.00
69855;BME280;57146;48.140;16.304;2022-10-16T05:07:59;99738.16;;;10.10;100.00
69855;BME280;57146;48.140;16.304;2022-10-16T05:10:26;99740.56;;;10.06;100.00
69855;BME280;57146;48.140;16.304;2022-10-16T05:12:53;99741.84;;;10.09;100.00
69855;BME280;57146;48.140;16.304;2022-10-16T05:15:20;99739.53;;;10.07;100.00
69855;BME280;57146;48.140;16.304;2022-10-16T05:17:47;99743.63;;;10.14;100.00
69855;BME280;57146;48.140;16.304;2022-10-16T05:20:13;99753.88;;;10.15;100.00
69855;BME280;57146;48.140;16.304;2022-10-16T05:22:40;99757.06;;;10.12;100.00
69855;BME280;57146;48.140;16.304;2022-10-16T05:25:07;99765.75;;;10.13;100.00
69855;BME280;57146;48.140;16.304;2022-10-16T05:27:34;99770.75;;;10.14;100.00
69855;BME280;57146;48.140;16.304;2022-10-16T05:30:01;99764.97;;;10.12;100.00
69855;BME280;57146;48.140;16.304;2022-10-16T05:32:28;99773.41;;;10.09;100.00
69855;BME280;57146;48.140;16.304;2022-10-16T05:34:55;99771.91;;;10.03;100.00
69855;BME280;57146;48.140;16.304;2022-10-16T05:37:21;99779.31;;;10.01;100.00
69855;BME280;57146;48.140;16.304;2022-10-16T05:39:49;99774.69;;;9.93;100.00
69855;BME280;57146;48.140;16.304;2022-10-16T05:42:16;99772.91;;;9.88;100.00
69855;BME280;57146;48.140;16.304;2022-10-16T05:44:43;99782.38;;;9.89;100.00
69855;BME280;57146;48.140;16.304;2022-10-16T05:47:10;99777.88;;;9.90;100.00
69855;BME280;57146;48.140;16.304;2022-10-16T05:49:40;99795.00;;;9.87;100.00
69855;BME280;57146;48.140;16.304;2022-10-16T05:52:07;99802.16;;;9.81;100.00
69855;BME280;57146;48.140;16.304;2022-10-16T05:54:33;99794.34;;;9.76;100.00
69855;BME280;57146;48.140;16.304;2022-10-16T05:57:00;99790.50;;;9.69;100.00
69855;BME280;57146;48.140;16.304;2022-10-16T05:59:27;99801.84;;;9.64;100.00
69855;BME280;57146;48.140;16.304;2022-10-16T06:01:54;99799.09;;;9.74;100.00
69855;BME280;57146;48.140;16.304;2022-10-16T06:04:21;99807.50;;;9.76;100.00
69855;BME280;57146;48.140;16.304;2022-10-16T06:06:48;99812.22;;;9.74;100.00
69855;BME280;57146;48.140;16.304;2022-10-16T06:09:14;99821.06;;;9.83;100.00
69855;BME280;57146;48.140;16.304;2022-10-16T06:11:41;99818.16;;;9.85;100.00
69855;BME280;57146;48.140;16.304;2022-10-16T06:14:08;99824.78;;;9.82;100.00
69855;BME280;57146;48.140;16.304;2022-10-16T06:16:36;99825.72;;;9.92;100.00
69855;BME280;57146;48.140;16.304;2022-10-16T06:19:04;99830.31;;;9.81;100.00
69855;BME280;57146;48.140;16.304;2022-10-16T06:21:31;99827.41;;;9.82;100.00
69855;BME280;57146;48.140;16.304;2022-10-16T06:23:58;99837.84;;;9.88;100.00
69855;BME280;57146;48.140;16.304;2022-10-16T06:26:27;99843.44;;;9.81;100.00
69855;BME280;57146;48.140;16.304;2022-10-16T06:28:56;99849.47;;;9.81;100.00
69855;BME280;57146;48.140;16.304;2022-10-16T06:31:25;99846.06;;;9.81;100.00
69855;BME280;57146;48.140;16.304;2022-10-16T06:33:53;99845.81;;;9.82;100.00
69855;BME280;57146;48.140;16.304;2022-10-16T06:36:20;99850.53;;;9.86;100.00
69855;BME280;57146;48.140;16.304;2022-10-16T06:38:47;99853.69;;;9.82;100.00
69855;BME280;57146;48.140;16.304;2022-10-16T06:41:18;99847.66;;;9.82;100.00
69855;BME280;57146;48.140;16.304;2022-10-16T06:43:46;99857.88;;;9.83;100.00
69855;BME280;57146;48.140;16.304;2022-10-16T06:46:16;99859.75;;;9.83;100.00
69855;BME280;57146;48.140;16.304;2022-10-16T06:48:43;99856.03;;;9.84;100.00
69855;BME280;57146;48.140;16.304;2022-10-16T06:51:16;99857.97;;;9.78;100.00
69855;BME280;57146;48.140;16.304;2022-10-16T06:53:45;99854.75;;;9.81;100.00
69855;BME280;57146;48.140;16.304;2022-10-16T06:56:31;99873.44;;;9.80;100.00
69855;BME280;57146;48.140;16.304;2022-10-16T06:58:59;99878.41;;;9.81;100.00
69855;BME280;57146;48.140;16.304;2022-10-16T07:01:27;99884.19;;;9.83;100.00
69855;BME280;57146;48.140;16.304;2022-10-16T07:03:54;99889.66;;;9.87;100.00
69855;BME280;57146;48.140;16.304;2022-10-16T07:06:23;99896.72;;;9.92;100.00
69855;BME280;57146;48.140;16.304;2022-10-16T07:08:51;99899.63;;;9.90;100.00
69855;BME280;57146;48.140;16.304;2022-10-16T07:11:21;99902.53;;;9.89;100.00
69855;BME280;57146;48.140;16.304;2022-10-16T07:13:50;99909.31;;;9.95;100.00
69855;BME280;57146;48.140;16.304;2022-10-16T07:16:27;99890.41;;;9.93;100.00
69855;BME280;57146;48.140;16.304;2022-10-16T07:18:56;99898.22;;;9.98;100.00
69855;BME280;57146;48.140;16.304;2022-10-16T07:21:23;99899.75;;;10.04;100.00
69855;BME280;57146;48.140;16.304;2022-10-16T07:23:51;99905.78;;;10.04;100.00
69855;BME280;57146;48.140;16.304;2022-10-16T07:26:18;99903.41;;;10.03;100.00
69855;BME280;57146;48.140;16.304;2022-10-16T07:28:45;99900.75;;;10.08;100.00
69855;BME280;57146;48.140;16.304;2022-10-16T07:31:13;99903.59;;;10.12;100.00
69855;BME280;57146;48.140;16.304;2022-10-16T07:33:42;99903.75;;;10.20;100.00
69855;BME280;57146;48.140;16.304;2022-10-16T07:36:11;99904.84;;;10.19;100.00
69855;BME280;57146;48.140;16.304;2022-10-16T07:38:42;99907.94;;;10.26;100.00
69855;BME280;57146;48.140;16.304;2022-10-16T07:41:12;99911.84;;;10.29;100.00
69855;BME280;57146;48.140;16.304;2022-10-16T07:43:40;99906.81;;;10.33;100.00
69855;BME280;57146;48.140;16.304;2022-10-16T07:46:11;99916.19;;;10.39;100.00
69855;BME280;57146;48.140;16.304;2022-10-16T07:48:38;99907.31;;;10.35;100.00
69855;BME280;57146;48.140;16.304;2022-10-16T07:51:06;99915.19;;;10.35;100.00
69855;BME280;57146;48.140;16.304;2022-10-16T07:53:33;99915.94;;;10.40;100.00
69855;BME280;57146;48.140;16.304;2022-10-16T07:56:04;99919.28;;;10.46;100.00
69855;BME280;57146;48.140;16.304;2022-10-16T07:58:32;99919.34;;;10.41;100.00
69855;BME280;57146;48.140;16.304;2022-10-16T08:01:07;99922.97;;;10.45;100.00
69855;BME280;57146;48.140;16.304;2022-10-16T08:03:35;99921.06;;;10.50;100.00
69855;BME280;57146;48.140;16.304;2022-10-16T08:06:03;99928.63;;;10.57;100.00
69855;BME280;57146;48.140;16.304;2022-10-16T08:08:30;99935.44;;;10.58;100.00
69855;BME280;57146;48.140;16.304;2022-10-16T08:10:57;99937.22;;;10.63;100.00
69855;BME280;57146;48.140;16.304;2022-10-16T08:13:24;99935.88;;;10.65;100.00
69855;BME280;57146;48.140;16.304;2022-10-16T08:15:51;99937.19;;;10.68;100.00
69855;BME280;57146;48.140;16.304;2022-10-16T08:18:19;99946.56;;;10.74;100.00
69855;BME280;57146;48.140;16.304;2022-10-16T08:20:46;99944.72;;;10.74;100.00
69855;BME280;57146;48.140;16.304;2022-10-16T08:23:14;99940.28;;;10.70;100.00
69855;BME280;57146;48.140;16.304;2022-10-16T08:25:41;99950.00;;;10.74;100.00
69855;BME280;57146;48.140;16.304;2022-10-16T08:28:10;99956.38;;;10.68;100.00
69855;BME280;57146;48.140;16.304;2022-10-16T08:30:37;99955.38;;;10.64;100.00
69855;BME280;57146;48.140;16.304;2022-10-16T08:33:04;99955.94;;;10.61;100.00
69855;BME280;57146;48.140;16.304;2022-10-16T08:35:31;99959.66;;;10.60;100.00
69855;BME280;57146;48.140;16.304;2022-10-16T08:37:58;99957.94;;;10.69;100.00
69855;BME280;57146;48.140;16.304;2022-10-16T08:40:28;99958.28;;;10.63;100.00
69855;BME280;57146;48.140;16.304;2022-10-16T08:50:40;99960.44;;;10.79;100.00
69855;BME280;57146;48.140;16.304;2022-10-16T08:53:15;99966.56;;;10.75;100.00
69855;BME280;57146;48.140;16.304;2022-10-16T08:55:48;99959.25;;;10.72;100.00
69855;BME280;57146;48.140;16.304;2022-10-16T08:58:27;99969.97;;;10.75;100.00
69855;BME280;57146;48.140;16.304;2022-10-16T09:00:56;99965.50;;;10.76;100.00
69855;BME280;57146;48.140;16.304;2022-10-16T09:09:12;99964.06;;;10.84;100.00
69855;BME280;57146;48.140;16.304;2022-10-16T09:19:48;99976.69;;;10.87;100.00
69855;BME280;57146;48.140;16.304;2022-10-16T09:22:26;99971.41;;;10.87;100.00
69855;BME280;57146;48.140;16.304;2022-10-16T09:24:55;99975.47;;;10.98;100.00
69855;BME280;57146;48.140;16.304;2022-10-16T09:27:26;99982.31;;;10.99;100.00
69855;BME280;57146;48.140;16.304;2022-10-16T09:29:53;99987.50;;;11.04;100.00
69855;BME280;57146;48.140;16.304;2022-10-16T09:32:25;99989.81;;;11.11;100.00
69855;BME280;57146;48.140;16.304;2022-10-16T09:34:54;99980.81;;;11.12;100.00
69855;BME280;57146;48.140;16.304;2022-10-16T09:37:22;99988.94;;;11.15;100.00
69855;BME280;57146;48.140;16.304;2022-10-16T09:39:52;99995.19;;;11.19;100.00
69855;BME280;57146;48.140;16.304;2022-10-16T09:44:49;100006.47;;;11.25;100.00
69855;BME280;57146;48.140;16.304;2022-10-16T09:47:23;100008.38;;;11.19;100.00
69855;BME280;57146;48.140;16.304;2022-10-16T09:50:34;100007.59;;;11.19;100.00
69855;BME280;57146;48.140;16.304;2022-10-16T09:52:41;100014.16;;;11.21;100.00
69855;BME280;57146;48.140;16.304;2022-10-16T09:55:17;100006.50;;;11.20;100.00
69855;BME280;57146;48.140;16.304;2022-10-16T09:57:54;100007.09;;;11.17;100.00
69855;BME280;57146;48.140;16.304;2022-10-16T10:00:23;100010.22;;;11.19;100.00
69855;BME280;57146;48.140;16.304;2022-10-16T10:02:50;100010.00;;;11.15;100.00
69855;BME280;57146;48.140;16.304;2022-10-16T10:05:28;100006.25;;;11.21;100.00
69855;BME280;57146;48.140;16.304;2022-10-16T10:08:02;100012.31;;;11.22;100.00
69855;BME280;57146;48.140;16.304;2022-10-16T10:10:32;100014.16;;;11.21;100.00
69855;BME280;57146;48.140;16.304;2022-10-16T10:12:59;100009.38;;;11.23;100.00
69855;BME280;57146;48.140;16.304;2022-10-16T10:15:34;100012.22;;;11.27;100.00
69855;BME280;57146;48.140;16.304;2022-10-16T10:18:19;100012.78;;;11.24;100.00
69855;BME280;57146;48.140;16.304;2022-10-16T10:20:57;100019.91;;;11.23;100.00
69855;BME280;57146;48.140;16.304;2022-10-16T10:23:26;100015.41;;;11.24;100.00
69855;BME280;57146;48.140;16.304;2022-10-16T10:26:18;100014.06;;;11.26;100.00
69855;BME280;57146;48.140;16.304;2022-10-16T10:29:35;100022.19;;;11.30;100.00
69855;BME280;57146;48.140;16.304;2022-10-16T10:32:26;100017.69;;;11.31;100.00
69855;BME280;57146;48.140;16.304;2022-10-16T10:40:22;100017.91;;;11.34;100.00
69855;BME280;57146;48.140;16.304;2022-10-16T10:42:59;100028.41;;;11.39;100.00
69855;BME280;57146;48.140;16.304;2022-10-16T10:45:42;100023.91;;;11.40;100.00
69855;BME280;57146;48.140;16.304;2022-10-16T10:51:27;100012.00;;;11.42;100.00
69855;BME280;57146;48.140;16.304;2022-10-16T10:54:17;100015.91;;;11.45;100.00
69855;BME280;57146;48.140;16.304;2022-10-16T10:56:56;100010.16;;;11.43;100.00
69855;BME280;57146;48.140;16.304;2022-10-16T11:02:32;100006.84;;;11.51;100.00
69855;BME280;57146;48.140;16.304;2022-10-16T11:07:54;100010.91;;;11.62;100.00
69855;BME280;57146;48.140;16.304;2022-10-16T11:10:49;100007.41;;;11.67;100.00
69855;BME280;57146;48.140;16.304;2022-10-16T11:15:48;99995.63;;;11.78;100.00
69855;BME280;57146;48.140;16.304;2022-10-16T11:18:32;99991.56;;;11.86;100.00
69855;BME280;57146;48.140;16.304;2022-10-16T11:21:04;99981.69;;;11.91;100.00
69855;BME280;57146;48.140;16.304;2022-10-16T11:23:51;99986.31;;;12.00;100.00
69855;BME280;57146;48.140;16.304;2022-10-16T11:26:25;99981.25;;;12.03;100.00
69855;BME280;57146;48.140;16.304;2022-10-16T11:28:55;99994.84;;;12.10;100.00
69855;BME280;57146;48.140;16.304;2022-10-16T11:31:28;99989.66;;;12.19;100.00
69855;BME280;57146;48.140;16.304;2022-10-16T11:36:38;99990.53;;;12.28;100.00
69855;BME280;57146;48.140;16.304;2022-10-16T11:41:37;99984.38;;;12.33;100.00
69855;BME280;57146;48.140;16.304;2022-10-16T11:44:38;99986.63;;;12.39;100.00
69855;BME280;57146;48.140;16.304;2022-10-16T11:50:52;99988.38;;;12.58;100.00
69855;BME280;57146;48.140;16.304;2022-10-16T11:55:49;99991.19;;;12.75;100.00
69855;BME280;57146;48.140;16.304;2022-10-16T12:01:57;99982.28;;;12.85;100.00
69855;BME280;57146;48.140;16.304;2022-10-16T12:05:11;99979.06;;;12.88;100.00
69855;BME280;57146;48.140;16.304;2022-10-16T12:07:23;99972.69;;;12.89;100.00
69855;BME280;57146;48.140;16.304;2022-10-16T12:09:51;99982.84;;;12.96;100.00
69855;BME280;57146;48.140;16.304;2022-10-16T12:12:37;99984.84;;;13.12;100.00
69855;BME280;57146;48.140;16.304;2022-10-16T12:15:24;99984.59;;;13.23;100.00
69855;BME280;57146;48.140;16.304;2022-10-16T12:18:24;99978.47;;;13.27;100.00
69855;BME280;57146;48.140;16.304;2022-10-16T12:20:55;99975.28;;;13.39;100.00
69855;BME280;57146;48.140;16.304;2022-10-16T12:23:23;99973.97;;;13.50;100.00
69855;BME280;57146;48.140;16.304;2022-10-16T12:25:55;99979.09;;;13.55;100.00
69855;BME280;57146;48.140;16.304;2022-10-16T12:28:26;99970.56;;;13.58;100.00
69855;BME280;57146;48.140;16.304;2022-10-16T12:31:05;99966.44;;;13.66;100.00
69855;BME280;57146;48.140;16.304;2022-10-16T12:33:34;99953.84;;;13.72;100.00
69855;BME280;57146;48.140;16.304;2022-10-16T12:36:05;99969.16;;;13.83;100.00
69855;BME280;57146;48.140;16.304;2022-10-16T12:41:07;99952.75;;;14.04;100.00
69855;BME280;57146;48.140;16.304;2022-10-16T12:43:52;99958.69;;;14.09;100.00
69855;BME280;57146;48.140;16.304;2022-10-16T12:46:21;99958.88;;;14.13;100.00
69855;BME280;57146;48.140;16.304;2022-10-16T12:48:49;99959.97;;;14.21;100.00
69855;BME280;57146;48.140;16.304;2022-10-16T12:51:37;99961.69;;;14.25;100.00
69855;BME280;57146;48.140;16.304;2022-10-16T12:54:10;99963.47;;;14.38;100.00
69855;BME280;57146;48.140;16.304;2022-10-16T12:57:18;99962.28;;;14.53;100.00
69855;BME280;57146;48.140;16.304;2022-10-16T13:00:19;99964.00;;;14.58;100.00
69855;BME280;57146;48.140;16.304;2022-10-16T13:21:19;99955.94;;;15.06;100.00
69855;BME280;57146;48.140;16.304;2022-10-16T13:26:35;99960.91;;;15.08;100.00
69855;BME280;57146;48.140;16.304;2022-10-16T13:29:07;99961.25;;;15.06;100.00
69855;BME280;57146;48.140;16.304;2022-10-16T13:31:37;99964.22;;;15.05;100.00
69855;BME280;57146;48.140;16.304;2022-10-16T13:34:05;99957.66;;;15.11;100.00
69855;BME280;57146;48.140;16.304;2022-10-16T13:36:50;99965.94;;;15.09;100.00
69855;BME280;57146;48.140;16.304;2022-10-16T13:39:29;99969.19;;;15.06;100.00
69855;BME280;57146;48.140;16.304;2022-10-16T13:44:41;99972.00;;;15.10;100.00
69855;BME280;57146;48.140;16.304;2022-10-16T13:47:29;99970.13;;;15.11;100.00
69855;BME280;57146;48.140;16.304;2022-10-16T13:50:05;99972.50;;;15.12;100.00
69855;BME280;57146;48.140;16.304;2022-10-16T13:52:32;99980.28;;;15.17;100.00
69855;BME280;57146;48.140;16.304;2022-10-16T13:54:59;99975.28;;;15.16;100.00
69855;BME280;57146;48.140;16.304;2022-10-16T13:57:28;99980.91;;;15.23;100.00
69855;BME280;57146;48.140;16.304;2022-10-16T13:59:55;99969.50;;;15.22;100.00
69855;BME280;57146;48.140;16.304;2022-10-16T14:04:54;99979.16;;;15.36;100.00
69855;BME280;57146;48.140;16.304;2022-10-16T14:07:31;99976.03;;;15.42;100.00
69855;BME280;57146;48.140;16.304;2022-10-16T14:10:03;99973.22;;;15.47;100.00
69855;BME280;57146;48.140;16.304;2022-10-16T14:12:30;99972.25;;;15.61;99.98
69855;BME280;57146;48.140;16.304;2022-10-16T14:14:59;99972.13;;;15.66;99.73
69855;BME280;57146;48.140;16.304;2022-10-16T14:17:31;99976.97;;;15.72;100.00
69855;BME280;57146;48.140;16.304;2022-10-16T14:20:03;99978.81;;;15.72;99.25
69855;BME280;57146;48.140;16.304;2022-10-16T14:22:38;99976.16;;;15.72;100.00
69855;BME280;57146;48.140;16.304;2022-10-16T14:30:25;99973.06;;;15.70;100.00
69855;BME280;57146;48.140;16.304;2022-10-16T14:33:01;99968.38;;;15.67;100.00
69855;BME280;57146;48.140;16.304;2022-10-16T14:35:37;99964.44;;;15.64;100.00
69855;BME280;57146;48.140;16.304;2022-10-16T14:38:06;99974.28;;;15.64;100.00
69855;BME280;57146;48.140;16.304;2022-10-16T14:40:47;99974.63;;;15.62;100.00
69855;BME280;57146;48.140;16.304;2022-10-16T14:43:42;99968.06;;;15.60;100.00
69855;BME280;57146;48.140;16.304;2022-10-16T14:46:12;99978.97;;;15.58;100.00
69855;BME280;57146;48.140;16.304;2022-10-16T14:48:49;99970.41;;;15.52;100.00